Time;durP1;ratioP1;P1;durP2;ratioP2;P2;SDS_P1;SDS_P2;PMS_P1;PMS_P2;Temp;Humidity;BMP_temperature;BMP_pressure;BME280_temperature;BME280_humidity;BME280_pressure;Samples;Min_cycle;Max_cycle;Signal;HPM_P1;HPM_P2
2022/05/25 00:00:24;;;;;;;7.22;4.97;;;;;;;;;;5030260;28;20022;-46
2022/05/25 00:02:49;;;;;;;7.05;4.78;;;;;;;;;;5030999;28;20028;-48
2022/05/25 00:05:16;;;;;;;7.95;5.03;;;;;;;;;;5031724;28;20112;-46
2022/05/25 00:07:42;;;;;;;6.07;4.20;;;;;;;;;;5032186;28;20026;-48
2022/05/25 00:10:07;;;;;;;7.88;4.60;;;;;;;;;;5031809;28;20025;-46
2022/05/25 00:12:33;;;;;;;7.82;4.70;;;;;;;;;;5031241;28;20121;-47
2022/05/25 00:14:58;;;;;;;8.48;4.63;;;;;;;;;;5032023;28;20021;-47
2022/05/25 00:17:24;;;;;;;5.65;4.78;;;;;;;;;;5031020;28;20018;-45
2022/05/25 00:20:01;;;;;;;8.32;5.45;;;;;;;;;;5030095;28;20025;-49
2022/05/25 00:22:38;;;;;;;6.18;5.57;;;;;;;;;;5028057;28;20021;-46
2022/05/25 00:25:05;;;;;;;6.57;5.10;;;;;;;;;;5028946;28;20361;-45
2022/05/25 00:27:30;;;;;;;6.78;5.75;;;;;;;;;;5028537;28;20604;-47
2022/05/25 00:29:55;;;;;;;6.63;5.00;;;;;;;;;;5031451;28;20136;-50
2022/05/25 00:32:22;;;;;;;8.27;5.43;;;;;;;;;;5033472;28;20112;-49
2022/05/25 00:34:48;;;;;;;10.55;6.00;;;;;;;;;;5033870;28;20026;-47
2022/05/25 00:37:13;;;;;;;6.78;5.43;;;;;;;;;;5035033;28;20039;-46
2022/05/25 00:39:40;;;;;;;6.60;5.63;;;;;;;;;;5035129;28;20026;-48
2022/05/25 00:42:06;;;;;;;6.53;5.70;;;;;;;;;;5035319;28;20393;-48
2022/05/25 00:44:31;;;;;;;5.88;5.22;;;;;;;;;;5034760;28;20029;-47
2022/05/25 00:46:57;;;;;;;6.13;5.53;;;;;;;;;;5035243;28;20023;-48
2022/05/25 00:49:28;;;;;;;7.40;5.80;;;;;;;;;;5035165;28;20025;-47
2022/05/25 00:52:04;;;;;;;6.10;4.93;;;;;;;;;;5033717;28;20377;-45
2022/05/25 00:54:37;;;;;;;10.65;5.63;;;;;;;;;;5035138;28;20040;-49
2022/05/25 00:57:07;;;;;;;9.27;4.63;;;;;;;;;;5034518;28;20055;-50
2022/05/25 00:59:34;;;;;;;;;;;;;;;;;;5035231;28;20044;-50
2022/05/25 01:02:00;;;;;;;7.03;3.20;;;;;;;;;;5034878;28;19916;-47
2022/05/25 01:04:26;;;;;;;5.85;4.95;;;;;;;;;;5034873;28;20493;-47
2022/05/25 01:06:54;;;;;;;10.40;8.38;;;;;;;;;;5034392;28;20049;-46
2022/05/25 01:09:38;;;;;;;12.38;7.07;;;;;;;;;;5034407;28;20072;-48
2022/05/25 01:12:19;;;;;;;9.77;7.63;;;;;;;;;;5034463;28;20026;-46
2022/05/25 01:15:10;;;;;;;11.48;8.70;;;;;;;;;;5034732;28;20033;-48
2022/05/25 01:17:57;;;;;;;9.93;7.53;;;;;;;;;;5034297;28;20026;-50
2022/05/25 01:20:34;;;;;;;10.52;8.80;;;;;;;;;;5034573;28;20030;-51
2022/05/25 01:23:09;;;;;;;6.88;5.50;;;;;;;;;;5034287;28;20544;-48
2022/05/25 01:25:54;;;;;;;8.68;6.43;;;;;;;;;;5034217;28;20553;-46
2022/05/25 01:28:48;;;;;;;4.50;3.78;;;;;;;;;;5034223;28;20026;-48
2022/05/25 01:31:23;;;;;;;10.85;8.40;;;;;;;;;;5034430;28;20045;-47
2022/05/25 01:33:57;;;;;;;13.55;8.52;;;;;;;;;;5034161;28;20035;-51
2022/05/25 01:36:46;;;;;;;13.50;8.20;;;;;;;;;;5033850;28;20435;-50
2022/05/25 01:39:23;;;;;;;13.35;7.82;;;;;;;;;;5034632;28;20378;-50
2022/05/25 01:41:54;;;;;;;10.95;6.63;;;;;;;;;;5033481;28;20055;-51
2022/05/25 01:44:27;;;;;;;8.07;6.32;;;;;;;;;;5034372;28;20061;-48
2022/05/25 01:47:02;;;;;;;5.40;4.43;;;;;;;;;;5033816;28;20485;-47
2022/05/25 01:49:55;;;;;;;9.73;6.90;;;;;;;;;;5033860;28;20021;-45
2022/05/25 01:52:28;;;;;;;8.60;6.35;;;;;;;;;;5033654;28;20117;-49
2022/05/25 01:55:00;;;;;;;4.88;4.25;;;;;;;;;;5033745;28;20080;-47
2022/05/25 01:57:29;;;;;;;5.53;4.90;;;;;;;;;;5033788;28;20021;-48
2022/05/25 01:59:54;;;;;;;6.25;5.53;;;;;;;;;;5033507;28;20017;-47
2022/05/25 02:05:09;;;;;;;6.47;4.97;;;;;;;;;;5033366;28;20088;-46
2022/05/25 02:07:53;;;;;;;3.97;3.63;;;;;;;;;;5033478;28;20032;-51
2022/05/25 02:10:25;;;;;;;11.48;7.97;;;;;;;;;;5033471;28;20033;-47
2022/05/25 02:13:36;;;;;;;7.38;4.55;;;;;;;;;;5033612;28;20382;-48
2022/05/25 02:16:11;;;;;;;6.35;5.72;;;;;;;;;;5033524;28;20029;-51
2022/05/25 02:18:36;;;;;;;11.77;8.68;;;;;;;;;;5033187;28;20498;-48
2022/05/25 02:21:27;;;;;;;9.52;7.75;;;;;;;;;;5033346;28;20037;-47
2022/05/25 02:23:52;;;;;;;9.73;6.82;;;;;;;;;;5032518;28;20501;-47
2022/05/25 02:26:33;;;;;;;8.95;6.13;;;;;;;;;;5033276;28;20032;-49
2022/05/25 02:29:09;;;;;;;5.28;4.28;;;;;;;;;;5033402;28;20037;-47
2022/05/25 02:31:42;;;;;;;5.95;5.35;;;;;;;;;;5033216;28;20032;-46
2022/05/25 02:34:11;;;;;;;7.03;5.70;;;;;;;;;;5033192;28;20083;-47
2022/05/25 02:36:38;;;;;;;10.65;7.22;;;;;;;;;;5033154;28;20018;-46
2022/05/25 02:39:10;;;;;;;9.15;6.45;;;;;;;;;;5032812;28;20025;-48
2022/05/25 02:41:42;;;;;;;6.57;5.15;;;;;;;;;;5033083;28;20392;-48
2022/05/25 02:44:09;;;;;;;12.30;6.63;;;;;;;;;;5033118;28;20045;-48
2022/05/25 02:46:34;;;;;;;14.93;9.18;;;;;;;;;;5032785;28;20480;-47
2022/05/25 02:49:00;;;;;;;10.98;8.32;;;;;;;;;;5032662;28;20052;-48
2022/05/25 02:51:26;;;;;;;3.75;3.35;;;;;;;;;;5032432;28;20485;-47
2022/05/25 02:53:52;;;;;;;6.65;4.82;;;;;;;;;;5032674;28;20037;-45
2022/05/25 02:56:17;;;;;;;19.40;8.45;;;;;;;;;;5032674;28;20037;-45
2022/05/25 02:58:43;;;;;;;10.82;6.82;;;;;;;;;;5032886;28;20022;-48
2022/05/25 03:01:08;;;;;;;16.20;9.32;;;;;;;;;;5032512;28;20029;-50
2022/05/25 03:03:36;;;;;;;13.07;9.82;;;;;;;;;;5032744;28;20040;-48
2022/05/25 03:06:02;;;;;;;15.15;10.65;;;;;;;;;;5032451;28;20409;-50
2022/05/25 03:08:27;;;;;;;12.52;8.48;;;;;;;;;;5032715;28;20096;-46
2022/05/25 03:10:53;;;;;;;10.18;7.75;;;;;;;;;;5032707;28;20044;-47
2022/05/25 03:13:18;;;;;;;9.68;7.25;;;;;;;;;;5032343;28;20040;-48
2022/05/25 03:15:44;;;;;;;14.93;9.40;;;;;;;;;;5032612;28;20034;-46
2022/05/25 03:18:09;;;;;;;9.25;5.25;;;;;;;;;;5032647;28;20029;-48
2022/05/25 03:20:35;;;;;;;8.70;6.05;;;;;;;;;;5032303;28;20466;-49
2022/05/25 03:23:00;;;;;;;7.60;6.05;;;;;;;;;;5032625;28;20083;-46
2022/05/25 03:25:26;;;;;;;12.75;9.13;;;;;;;;;;5032185;28;20065;-48
2022/05/25 03:27:51;;;;;;;12.23;8.23;;;;;;;;;;5032515;28;20035;-47
2022/05/25 03:30:20;;;;;;;11.48;8.85;;;;;;;;;;5032518;28;20029;-49
2022/05/25 03:32:45;;;;;;;7.07;6.05;;;;;;;;;;5032493;28;20026;-47
2022/05/25 03:35:12;;;;;;;11.43;8.90;;;;;;;;;;5032390;28;20030;-46
2022/05/25 03:37:38;;;;;;;14.50;9.35;;;;;;;;;;5032168;28;20474;-48
2022/05/25 03:40:06;;;;;;;7.40;4.60;;;;;;;;;;5032201;28;20026;-46
2022/05/25 03:42:32;;;;;;;7.15;5.93;;;;;;;;;;5032157;28;20049;-49
2022/05/25 03:44:58;;;;;;;8.27;6.15;;;;;;;;;;5032347;28;20057;-45
2022/05/25 03:47:23;;;;;;;16.42;5.82;;;;;;;;;;5032382;28;20055;-45
2022/05/25 03:49:48;;;;;;;11.43;9.07;;;;;;;;;;5032373;28;20029;-44
2022/05/25 03:52:20;;;;;;;11.98;8.48;;;;;;;;;;5032314;28;20030;-45
2022/05/25 03:54:46;;;;;;;10.88;9.10;;;;;;;;;;5032309;28;20036;-44
2022/05/25 03:57:11;;;;;;;12.77;8.52;;;;;;;;;;5032304;28;20029;-45
2022/05/25 03:59:37;;;;;;;13.02;9.52;;;;;;;;;;5032293;28;20030;-45
2022/05/25 04:02:02;;;;;;;12.10;8.27;;;;;;;;;;5032189;28;20489;-45
2022/05/25 04:04:28;;;;;;;9.60;6.53;;;;;;;;;;5034877;28;20037;-45
2022/05/25 04:06:54;;;;;;;14.13;4.68;;;;;;;;;;5035409;28;20049;-45
2022/05/25 04:09:19;;;;;;;10.60;8.00;;;;;;;;;;5035623;28;20120;-45
2022/05/25 04:11:45;;;;;;;13.60;9.20;;;;;;;;;;5035890;28;20068;-45
2022/05/25 04:14:12;;;;;;;10.48;8.27;;;;;;;;;;5035751;28;20087;-45
2022/05/25 04:16:37;;;;;;;11.82;8.45;;;;;;;;;;5035836;28;20030;-44
2022/05/25 04:19:03;;;;;;;15.38;8.88;;;;;;;;;;5035389;28;20389;-45
2022/05/25 04:21:28;;;;;;;11.90;9.07;;;;;;;;;;5035722;28;20064;-45
2022/05/25 04:23:54;;;;;;;10.15;8.20;;;;;;;;;;5035752;28;20034;-45
2022/05/25 04:26:19;;;;;;;12.82;8.90;;;;;;;;;;5035256;28;20463;-45
2022/05/25 04:28:45;;;;;;;8.50;7.38;;;;;;;;;;5035355;28;20021;-45
2022/05/25 04:31:10;;;;;;;8.93;6.82;;;;;;;;;;5035166;28;20086;-45
2022/05/25 04:33:36;;;;;;;8.75;7.22;;;;;;;;;;5035094;28;20116;-45
2022/05/25 04:36:03;;;;;;;10.85;8.27;;;;;;;;;;5035446;28;20056;-45
2022/05/25 04:38:28;;;;;;;10.73;8.63;;;;;;;;;;5035322;28;20057;-47
2022/05/25 04:40:54;;;;;;;9.80;8.23;;;;;;;;;;5017674;28;20076;-45
2022/05/25 04:43:23;;;;;;;10.93;7.47;;;;;;;;;;5035281;28;20384;-47
2022/05/25 04:45:50;;;;;;;6.47;5.85;;;;;;;;;;5035021;28;20029;-48
2022/05/25 04:48:20;;;;;;;6.32;4.25;;;;;;;;;;5034925;28;20473;-46
2022/05/25 04:50:47;;;;;;;2.88;2.63;;;;;;;;;;5033797;28;20034;-49
2022/05/25 04:53:15;;;;;;;6.53;4.38;;;;;;;;;;5034800;28;20060;-44
2022/05/25 04:58:29;;;;;;;8.95;6.93;;;;;;;;;;5020028;28;20032;-44
2022/05/25 05:00:55;;;;;;;13.30;8.30;;;;;;;;;;5034711;28;20029;-47
2022/05/25 05:03:22;;;;;;;9.82;7.82;;;;;;;;;;5034499;28;20076;-45
2022/05/25 05:05:48;;;;;;;8.48;5.63;;;;;;;;;;5016643;28;20041;-45
2022/05/25 05:08:13;;;;;;;9.55;6.47;;;;;;;;;;5034900;28;20488;-48
2022/05/25 05:10:39;;;;;;;8.85;5.38;;;;;;;;;;5034534;28;20030;-47
2022/05/25 05:13:05;;;;;;;10.55;5.10;;;;;;;;;;5017075;28;20025;-49
2022/05/25 05:15:43;;;;;;;12.57;6.47;;;;;;;;;;5033709;28;20539;-48
2022/05/25 05:18:09;;;;;;;6.13;5.40;;;;;;;;;;5034495;28;20109;-44
2022/05/25 05:20:35;;;;;;;7.47;5.80;;;;;;;;;;5034527;28;20052;-44
2022/05/25 05:23:01;;;;;;;7.22;5.55;;;;;;;;;;5034197;28;20025;-45
2022/05/25 05:25:27;;;;;;;6.40;4.95;;;;;;;;;;5034448;28;20071;-44
2022/05/25 05:27:53;;;;;;;4.68;3.40;;;;;;;;;;5034362;28;20034;-46
2022/05/25 05:30:21;;;;;;;5.70;5.05;;;;;;;;;;5034061;28;20030;-44
2022/05/25 05:32:47;;;;;;;5.13;4.63;;;;;;;;;;5016419;28;20036;-44
2022/05/25 05:35:13;;;;;;;6.45;4.85;;;;;;;;;;5016411;28;20048;-44
2022/05/25 05:37:45;;;;;;;4.78;3.80;;;;;;;;;;5016351;28;20029;-44
2022/05/25 05:40:13;;;;;;;8.18;4.82;;;;;;;;;;5034176;28;20040;-45
2022/05/25 05:42:40;;;;;;;4.72;3.83;;;;;;;;;;5033970;28;20029;-44
2022/05/25 05:45:12;;;;;;;4.22;3.40;;;;;;;;;;5034105;28;20053;-44
2022/05/25 05:47:45;;;;;;;5.63;3.22;;;;;;;;;;5033729;28;20025;-44
2022/05/25 05:50:12;;;;;;;6.10;5.22;;;;;;;;;;5034122;28;20245;-47
2022/05/25 05:52:38;;;;;;;6.90;5.05;;;;;;;;;;5033807;28;20362;-48
2022/05/25 05:55:05;;;;;;;7.30;5.70;;;;;;;;;;5016321;28;20087;-45
2022/05/25 05:57:33;;;;;;;5.60;4.28;;;;;;;;;;5015872;28;20034;-45
2022/05/25 05:59:59;;;;;;;5.38;4.88;;;;;;;;;;5033833;28;20434;-44
2022/05/25 06:02:24;;;;;;;6.97;4.90;;;;;;;;;;5033528;28;20021;-45
2022/05/25 06:04:50;;;;;;;4.88;3.65;;;;;;;;;;5033470;28;20355;-44
2022/05/25 06:07:15;;;;;;;6.07;4.03;;;;;;;;;;5033270;28;20080;-49
2022/05/25 06:09:41;;;;;;;7.53;4.25;;;;;;;;;;5033704;28;20022;-49
2022/05/25 06:12:07;;;;;;;6.85;4.88;;;;;;;;;;5033563;28;20029;-47
2022/05/25 06:14:32;;;;;;;5.95;3.55;;;;;;;;;;5033487;28;20033;-49
2022/05/25 06:19:42;;;;;;;8.70;5.25;;;;;;;;;;5033513;28;20042;-44
2022/05/25 06:22:10;;;;;;;7.85;4.55;;;;;;;;;;5015695;28;20033;-44
2022/05/25 06:24:46;;;;;;;5.88;5.05;;;;;;;;;;5033233;28;20025;-45
2022/05/25 06:27:12;;;;;;;7.38;5.43;;;;;;;;;;5032444;28;20433;-50
2022/05/25 06:29:40;;;;;;;8.65;5.15;;;;;;;;;;5033238;28;20377;-47
2022/05/25 06:32:08;;;;;;;10.35;5.07;;;;;;;;;;5033221;28;20026;-50
2022/05/25 06:34:34;;;;;;;5.28;4.63;;;;;;;;;;5033116;28;20025;-48
2022/05/25 06:37:00;;;;;;;4.90;4.32;;;;;;;;;;5032866;28;20496;-46
2022/05/25 06:39:27;;;;;;;5.80;5.00;;;;;;;;;;5033100;28;20377;-49
2022/05/25 06:41:53;;;;;;;7.15;4.93;;;;;;;;;;5032802;28;20067;-51
2022/05/25 06:44:19;;;;;;;5.40;4.75;;;;;;;;;;5033029;28;20057;-43
2022/05/25 06:46:45;;;;;;;6.93;4.55;;;;;;;;;;5033093;28;20381;-50
2022/05/25 06:49:11;;;;;;;7.18;4.82;;;;;;;;;;5032928;28;20029;-48
2022/05/25 06:51:36;;;;;;;6.22;4.88;;;;;;;;;;5015443;28;20025;-46
2022/05/25 06:54:03;;;;;;;6.00;5.35;;;;;;;;;;5032643;28;20037;-48
2022/05/25 06:56:29;;;;;;;9.35;4.65;;;;;;;;;;5031332;28;20032;-48
2022/05/25 06:58:57;;;;;;;5.00;4.32;;;;;;;;;;5014982;28;20029;-48
2022/05/25 07:01:24;;;;;;;6.43;4.35;;;;;;;;;;5032735;28;20033;-42
2022/05/25 07:03:54;;;;;;;5.47;4.65;;;;;;;;;;5032700;28;20057;-44
2022/05/25 07:06:19;;;;;;;;;;;;;;;;;;5032851;28;20452;-44
2022/05/25 07:08:45;;;;;;;5.43;4.40;;;;;;;;;;5032460;28;19913;-46
2022/05/25 07:11:12;;;;;;;8.32;4.75;;;;;;;;;;5032701;28;20026;-44
2022/05/25 07:13:39;;;;;;;4.68;4.28;;;;;;;;;;5032282;28;20037;-50
2022/05/25 07:16:09;;;;;;;4.75;4.03;;;;;;;;;;5032284;28;20175;-48
2022/05/25 07:18:35;;;;;;;5.70;4.18;;;;;;;;;;5032671;28;20500;-44
2022/05/25 07:21:03;;;;;;;6.13;4.50;;;;;;;;;;5032491;28;20466;-49
2022/05/25 07:23:28;;;;;;;5.25;4.50;;;;;;;;;;5032215;28;20111;-46
2022/05/25 07:25:54;;;;;;;6.10;4.88;;;;;;;;;;5032132;28;20072;-51
2022/05/25 07:28:19;;;;;;;5.00;4.10;;;;;;;;;;5032392;28;20032;-45
2022/05/25 07:30:47;;;;;;;6.30;4.13;;;;;;;;;;5032214;28;20065;-47
2022/05/25 07:33:12;;;;;;;7.18;4.75;;;;;;;;;;5032105;28;20232;-46
2022/05/25 07:35:38;;;;;;;4.93;4.43;;;;;;;;;;5032145;28;20109;-48
2022/05/25 07:38:04;;;;;;;4.97;4.55;;;;;;;;;;5032774;28;20048;-50
2022/05/25 07:40:36;;;;;;;8.00;5.30;;;;;;;;;;5036352;28;20022;-45
2022/05/25 07:43:05;;;;;;;5.53;5.03;;;;;;;;;;5036352;28;20026;-48
2022/05/25 07:45:32;;;;;;;5.93;5.40;;;;;;;;;;5035863;28;20091;-49
2022/05/25 07:47:58;;;;;;;6.40;5.43;;;;;;;;;;5035917;28;20565;-43
2022/05/25 07:50:23;;;;;;;8.48;4.95;;;;;;;;;;5018309;28;20101;-47
2022/05/25 07:52:52;;;;;;;7.65;5.30;;;;;;;;;;5035874;28;20108;-53
2022/05/25 07:55:18;;;;;;;6.47;5.30;;;;;;;;;;5036228;28;20393;-46
2022/05/25 07:57:43;;;;;;;9.45;4.95;;;;;;;;;;5036255;28;20021;-46
2022/05/25 08:00:09;;;;;;;6.28;5.38;;;;;;;;;;5036097;28;20473;-49
2022/05/25 08:08:10;;;;;;;6.97;5.07;;;;;;;;;;5035854;28;20118;-43
2022/05/25 08:10:36;;;;;;;5.35;4.80;;;;;;;;;;5035599;28;20473;-46
2022/05/25 08:13:02;;;;;;;6.43;5.13;;;;;;;;;;5035776;28;20034;-44
2022/05/25 08:15:29;;;;;;;5.75;4.70;;;;;;;;;;5035631;28;20025;-43
2022/05/25 08:17:55;;;;;;;6.63;5.63;;;;;;;;;;5035475;28;20032;-48
2022/05/25 08:20:21;;;;;;;7.30;5.43;;;;;;;;;;5035372;28;20104;-42
2022/05/25 08:22:48;;;;;;;8.30;5.15;;;;;;;;;;5034687;28;20553;-42
2022/05/25 08:25:15;;;;;;;5.28;4.72;;;;;;;;;;5033522;28;20044;-45
2022/05/25 08:27:41;;;;;;;7.28;5.25;;;;;;;;;;5033745;28;20021;-47
2022/05/25 08:30:10;;;;;;;8.18;5.80;;;;;;;;;;5033347;28;20120;-44
2022/05/25 08:32:35;;;;;;;5.60;4.93;;;;;;;;;;5033524;28;20437;-42
2022/05/25 08:35:01;;;;;;;5.20;4.70;;;;;;;;;;5034232;28;20073;-44
2022/05/25 08:37:27;;;;;;;8.48;4.90;;;;;;;;;;5035154;28;20030;-42
2022/05/25 08:39:53;;;;;;;5.28;4.80;;;;;;;;;;5034787;28;20550;-45
2022/05/25 08:42:21;;;;;;;7.50;5.00;;;;;;;;;;5035271;28;20109;-47
2022/05/25 08:44:49;;;;;;;6.13;5.05;;;;;;;;;;5035187;28;20095;-43
2022/05/25 08:47:15;;;;;;;5.63;4.65;;;;;;;;;;5028674;28;20021;-49
2022/05/25 08:49:44;;;;;;;9.18;4.95;;;;;;;;;;5016243;28;20538;-44
2022/05/25 08:52:35;;;;;;;6.90;5.55;;;;;;;;;;5034648;28;20025;-43
2022/05/25 08:55:04;;;;;;;7.05;5.70;;;;;;;;;;5034872;28;20029;-42
2022/05/25 08:57:38;;;;;;;5.65;5.15;;;;;;;;;;5034906;28;20419;-44
2022/05/25 09:00:07;;;;;;;5.63;4.72;;;;;;;;;;5034745;28;20038;-47
2022/05/25 09:02:33;;;;;;;6.85;4.93;;;;;;;;;;5034847;28;20036;-43
2022/05/25 09:05:08;;;;;;;5.10;4.68;;;;;;;;;;5033153;28;20041;-45
2022/05/25 09:08:05;;;;;;;5.68;4.18;;;;;;;;;;5032738;28;20421;-48
2022/05/25 09:10:38;;;;;;;5.68;4.55;;;;;;;;;;5033294;28;20528;-41
2022/05/25 09:13:12;;;;;;;4.30;4.00;;;;;;;;;;5033047;28;20115;-50
2022/05/25 09:16:15;;;;;;;5.00;4.50;;;;;;;;;;5032935;28;20030;-44
2022/05/25 09:18:33;;;;;;;5.60;4.18;;;;;;;;;;5032389;28;20037;-47
2022/05/25 09:21:02;;;;;;;7.18;4.40;;;;;;;;;;5032624;28;20029;-45
2022/05/25 09:23:28;;;;;;;4.65;4.13;;;;;;;;;;5014499;28;20499;-44
2022/05/25 09:25:54;;;;;;;8.07;4.40;;;;;;;;;;5032129;28;20548;-46
2022/05/25 09:28:22;;;;;;;6.40;3.97;;;;;;;;;;5031621;28;20037;-48
2022/05/25 09:30:52;;;;;;;4.45;4.05;;;;;;;;;;5032420;28;20112;-42
2022/05/25 09:33:36;;;;;;;5.35;4.82;;;;;;;;;;5032314;28;20034;-44
2022/05/25 09:36:09;;;;;;;7.10;4.20;;;;;;;;;;5032209;28;20532;-42
2022/05/25 09:39:00;;;;;;;4.75;4.35;;;;;;;;;;5031919;28;20029;-42
2022/05/25 09:41:27;;;;;;;7.68;4.57;;;;;;;;;;5032495;28;20527;-50
2022/05/25 09:43:56;;;;;;;4.70;4.30;;;;;;;;;;5031989;28;20052;-41
2022/05/25 09:46:29;;;;;;;6.45;4.38;;;;;;;;;;5032536;28;20032;-43
2022/05/25 09:49:05;;;;;;;5.63;4.55;;;;;;;;;;5032348;28;20024;-44
2022/05/25 09:51:36;;;;;;;5.65;4.30;;;;;;;;;;5032232;28;20030;-43
2022/05/25 09:54:10;;;;;;;4.40;4.00;;;;;;;;;;5031922;28;20544;-46
2022/05/25 09:56:39;;;;;;;4.85;4.40;;;;;;;;;;5032321;28;20389;-46
2022/05/25 09:59:09;;;;;;;6.30;4.60;;;;;;;;;;5031904;28;20489;-49
2022/05/25 10:01:43;;;;;;;7.32;4.22;;;;;;;;;;5032143;28;20029;-46
2022/05/25 10:04:13;;;;;;;11.90;4.13;;;;;;;;;;5031604;28;20036;-44
2022/05/25 10:07:16;;;;;;;4.15;3.75;;;;;;;;;;5014030;28;20060;-45
2022/05/25 10:09:49;;;;;;;4.90;4.00;;;;;;;;;;5031517;28;20477;-43
2022/05/25 10:12:39;;;;;;;5.93;4.63;;;;;;;;;;5031562;28;20049;-43
2022/05/25 10:15:14;;;;;;;5.13;4.60;;;;;;;;;;5031467;28;20473;-43
2022/05/25 10:17:42;;;;;;;5.07;4.57;;;;;;;;;;5031899;28;20037;-47
2022/05/25 10:20:34;;;;;;;4.70;4.30;;;;;;;;;;5031780;28;20030;-43
2022/05/25 10:23:11;;;;;;;6.25;4.85;;;;;;;;;;5031671;28;20033;-49
2022/05/25 10:25:47;;;;;;;5.32;4.72;;;;;;;;;;5031248;28;20045;-45
2022/05/25 10:28:28;;;;;;;5.40;4.90;;;;;;;;;;5031449;28;20038;-44
2022/05/25 10:36:49;;;;;;;5.03;4.43;;;;;;;;;;5031645;28;20045;-47
2022/05/25 10:39:18;;;;;;;5.05;4.55;;;;;;;;;;5031011;28;20056;-43
2022/05/25 10:41:57;;;;;;;;;;;;;;;;;;5041203;28;20072;-44
2022/05/25 10:44:23;;;;;;;5.07;4.57;;;;;;;;;;5032990;28;20360;-43
2022/05/25 10:46:57;;;;;;;6.68;5.15;;;;;;;;;;5032902;28;20032;-45
2022/05/25 10:49:52;;;;;;;6.20;5.00;;;;;;;;;;5050946;28;20507;-45
2022/05/25 10:52:24;;;;;;;5.50;4.75;;;;;;;;;;5037607;28;20037;-44
2022/05/25 10:54:54;;;;;;;7.05;4.75;;;;;;;;;;5050776;28;20029;-44
2022/05/25 10:57:50;;;;;;;8.25;5.15;;;;;;;;;;5050916;28;20107;-46
2022/05/25 11:00:16;;;;;;;5.40;4.90;;;;;;;;;;5051061;28;20448;-42
2022/05/25 11:02:51;;;;;;;6.80;4.93;;;;;;;;;;5050434;28;20734;-44
2022/05/25 11:05:23;;;;;;;9.57;5.15;;;;;;;;;;5050590;28;20063;-43
2022/05/25 11:07:54;;;;;;;5.43;4.45;;;;;;;;;;5050777;28;20037;-45
2022/05/25 11:10:38;;;;;;;6.05;4.05;;;;;;;;;;5051046;28;20102;-42
2022/05/25 11:13:13;;;;;;;4.90;4.40;;;;;;;;;;5050319;28;20024;-47
2022/05/25 11:16:19;;;;;;;4.88;4.43;;;;;;;;;;5050968;28;20040;-44
2022/05/25 11:18:48;;;;;;;6.70;5.22;;;;;;;;;;5050556;28;20029;-46
2022/05/25 11:21:24;;;;;;;6.97;4.87;;;;;;;;;;5050648;28;20045;-46
2022/05/25 11:24:21;;;;;;;5.30;4.55;;;;;;;;;;5050730;28;20033;-43
2022/05/25 11:27:22;;;;;;;6.05;5.03;;;;;;;;;;5046054;28;20045;-46
2022/05/25 11:30:20;;;;;;;6.63;4.10;;;;;;;;;;5050767;28;20045;-43
2022/05/25 11:33:13;;;;;;;4.70;4.25;;;;;;;;;;5050439;28;20032;-45
2022/05/25 11:35:53;;;;;;;8.50;4.18;;;;;;;;;;5050121;28;20025;-43
2022/05/25 11:39:07;;;;;;;8.77;5.15;;;;;;;;;;5050518;28;20087;-47
2022/05/25 11:42:23;;;;;;;9.77;4.28;;;;;;;;;;5012242;28;20060;-47
2022/05/25 11:45:18;;;;;;;7.03;4.05;;;;;;;;;;4977114;28;20031;-47
2022/05/25 11:48:04;;;;;;;5.22;4.10;;;;;;;;;;5035869;28;20090;-48
2022/05/25 11:50:52;;;;;;;4.38;3.78;;;;;;;;;;5046612;28;20511;-48
2022/05/25 11:53:18;;;;;;;4.70;3.97;;;;;;;;;;5050269;28;20032;-48
2022/05/25 11:56:05;;;;;;;4.22;3.83;;;;;;;;;;5049384;28;20037;-46
2022/05/25 11:58:46;;;;;;;10.48;4.60;;;;;;;;;;5050399;28;20043;-48
2022/05/25 12:01:17;;;;;;;4.88;3.55;;;;;;;;;;5049050;28;20693;-49
2022/05/25 12:04:09;;;;;;;3.83;3.47;;;;;;;;;;5049734;28;20033;-49
2022/05/25 12:06:41;;;;;;;6.88;3.80;;;;;;;;;;5049905;28;20504;-51
2022/05/25 12:09:24;;;;;;;7.25;4.13;;;;;;;;;;5049799;28;20642;-50
2022/05/25 12:11:53;;;;;;;5.32;3.63;;;;;;;;;;5050181;28;20029;-45
2022/05/25 12:14:36;;;;;;;9.98;3.60;;;;;;;;;;5031455;28;20119;-49
2022/05/25 12:17:20;;;;;;;5.55;4.22;;;;;;;;;;5049595;28;20126;-48
2022/05/25 12:19:49;;;;;;;4.00;3.50;;;;;;;;;;5049404;28;20021;-47
2022/05/25 12:22:18;;;;;;;4.28;3.13;;;;;;;;;;5050053;28;20078;-46
2022/05/25 12:24:48;;;;;;;5.77;3.40;;;;;;;;;;5051524;28;20033;-47
2022/05/25 12:27:19;;;;;;;5.22;3.42;;;;;;;;;;5048783;28;20497;-48
2022/05/25 12:29:59;;;;;;;3.95;3.50;;;;;;;;;;5038690;28;20376;-46
2022/05/25 12:32:27;;;;;;;5.28;3.70;;;;;;;;;;5040012;28;20104;-46
2022/05/25 12:34:54;;;;;;;7.32;4.22;;;;;;;;;;5041429;28;20044;-48
2022/05/25 12:37:41;;;;;;;7.93;4.00;;;;;;;;;;5043487;28;20083;-48
2022/05/25 12:40:07;;;;;;;4.60;4.20;;;;;;;;;;5038519;28;20074;-50
2022/05/25 12:42:38;;;;;;;10.38;4.32;;;;;;;;;;5042650;28;20487;-46
2022/05/25 12:48:31;;;;;;;;;;;;;;;;;;5045107;28;20048;-45
2022/05/25 12:51:10;;;;;;;4.50;3.97;;;;;;;;;;5053449;28;19919;-50
2022/05/25 12:53:46;;;;;;;5.75;4.15;;;;;;;;;;5053092;28;20175;-45
2022/05/25 12:56:23;;;;;;;8.00;4.88;;;;;;;;;;5053290;28;20025;-45
2022/05/25 12:58:52;;;;;;;8.02;4.55;;;;;;;;;;5052398;28;20029;-49
2022/05/25 13:01:30;;;;;;;6.35;4.38;;;;;;;;;;5048311;28;20030;-52
2022/05/25 13:03:55;;;;;;;7.45;4.40;;;;;;;;;;5032818;28;20389;-47
2022/05/25 13:06:42;;;;;;;14.88;4.53;;;;;;;;;;5032353;28;20056;-47
2022/05/25 13:09:09;;;;;;;5.88;3.95;;;;;;;;;;5032202;28;20397;-46
2022/05/25 13:11:49;;;;;;;6.70;5.60;;;;;;;;;;5040233;28;20388;-48
2022/05/25 13:14:18;;;;;;;6.35;4.20;;;;;;;;;;5052627;28;20113;-46
2022/05/25 13:16:48;;;;;;;6.70;4.30;;;;;;;;;;5052413;28;20044;-49
2022/05/25 13:19:16;;;;;;;;;;;;;;;;;;5053080;28;20128;-47
2022/05/25 13:21:44;;;;;;;6.15;3.88;;;;;;;;;;5052598;28;20007;-45
2022/05/25 13:24:24;;;;;;;5.90;4.10;;;;;;;;;;5052503;28;20436;-49
2022/05/25 13:27:15;;;;;;;5.03;3.67;;;;;;;;;;5043863;28;20457;-44
2022/05/25 13:30:01;;;;;;;8.00;4.00;;;;;;;;;;5042173;28;20033;-48
2022/05/25 13:32:48;;;;;;;5.85;3.80;;;;;;;;;;5037140;28;20021;-46
2022/05/25 13:35:19;;;;;;;9.00;3.90;;;;;;;;;;5040761;28;20048;-46
2022/05/25 13:37:45;;;;;;;4.05;3.63;;;;;;;;;;5037229;28;20017;-45
2022/05/25 13:40:11;;;;;;;9.13;3.95;;;;;;;;;;5040497;28;20044;-47
2022/05/25 13:42:42;;;;;;;7.93;3.88;;;;;;;;;;5042040;28;20469;-47
2022/05/25 13:45:17;;;;;;;7.18;3.90;;;;;;;;;;5041033;28;20048;-47
2022/05/25 13:47:55;;;;;;;5.78;3.80;;;;;;;;;;5037671;28;20112;-49
2022/05/25 13:50:35;;;;;;;6.28;4.03;;;;;;;;;;5039809;28;20068;-49
2022/05/25 13:53:02;;;;;;;7.03;3.85;;;;;;;;;;5037737;28;20534;-50
2022/05/25 13:55:30;;;;;;;5.43;4.10;;;;;;;;;;5032438;28;20116;-49
2022/05/25 13:58:01;;;;;;;7.38;4.47;;;;;;;;;;5032420;28;20711;-45
2022/05/25 14:00:27;;;;;;;6.32;4.00;;;;;;;;;;5031994;28;20022;-49
2022/05/25 14:02:55;;;;;;;4.20;3.83;;;;;;;;;;5031957;28;20033;-50
2022/05/25 14:05:34;;;;;;;7.60;4.28;;;;;;;;;;5031720;28;20389;-47
2022/05/25 14:11:16;;;;;;;5.97;4.22;;;;;;;;;;5032110;28;20620;-51
2022/05/25 14:13:42;;;;;;;6.85;4.30;;;;;;;;;;5031496;28;20052;-48
2022/05/25 14:16:15;;;;;;;4.60;3.78;;;;;;;;;;5014255;28;20021;-49
2022/05/25 14:18:54;;;;;;;4.60;3.90;;;;;;;;;;5031843;28;20033;-48
2022/05/25 14:21:43;;;;;;;;;;;;;;;;;;5032386;28;20033;-51
2022/05/25 14:24:12;;;;;;;9.13;4.53;;;;;;;;;;5025772;28;19939;-47
2022/05/25 14:26:44;;;;;;;4.93;3.75;;;;;;;;;;5031817;28;20102;-47
2022/05/25 14:29:13;;;;;;;7.38;4.53;;;;;;;;;;5032317;28;20032;-48
2022/05/25 14:31:48;;;;;;;9.02;4.30;;;;;;;;;;5031562;28;20025;-50
2022/05/25 14:34:16;;;;;;;5.53;3.60;;;;;;;;;;5031693;28;20037;-49
2022/05/25 14:36:47;;;;;;;4.78;3.65;;;;;;;;;;5031360;28;20120;-49
2022/05/25 14:39:18;;;;;;;5.47;3.92;;;;;;;;;;5031570;28;20168;-46
2022/05/25 14:41:45;;;;;;;8.60;4.00;;;;;;;;;;5030951;28;20038;-45
2022/05/25 14:44:40;;;;;;;4.10;3.47;;;;;;;;;;5031369;28;20025;-50
2022/05/25 14:47:30;;;;;;;7.40;4.00;;;;;;;;;;5030986;28;20083;-48
2022/05/25 14:50:07;;;;;;;6.15;4.00;;;;;;;;;;5031265;28;20037;-45
2022/05/25 14:52:33;;;;;;;5.03;4.18;;;;;;;;;;5012993;28;20235;-45
2022/05/25 14:55:12;;;;;;;6.43;3.92;;;;;;;;;;5031019;28;20031;-49
2022/05/25 14:57:38;;;;;;;5.30;3.85;;;;;;;;;;5030912;28;20026;-47
2022/05/25 15:00:04;;;;;;;5.38;4.10;;;;;;;;;;5030782;28;20033;-47
2022/05/25 15:02:36;;;;;;;7.97;3.88;;;;;;;;;;5030861;28;20490;-46
2022/05/25 15:05:24;;;;;;;6.68;4.07;;;;;;;;;;5031048;28;20041;-50
2022/05/25 15:07:54;;;;;;;4.95;3.97;;;;;;;;;;5030874;28;20072;-46
2022/05/25 15:10:27;;;;;;;7.95;4.75;;;;;;;;;;5030619;28;20030;-47
2022/05/25 15:12:53;;;;;;;8.07;4.20;;;;;;;;;;5031153;28;20249;-46
2022/05/25 15:18:30;;;;;;;6.22;4.25;;;;;;;;;;5030662;28;20110;-50
2022/05/25 15:21:01;;;;;;;6.75;4.28;;;;;;;;;;5031027;28;20119;-46
2022/05/25 15:23:40;;;;;;;5.72;4.13;;;;;;;;;;5030603;28;20033;-45
2022/05/25 15:26:28;;;;;;;10.18;4.20;;;;;;;;;;5030933;28;20083;-48
2022/05/25 15:29:15;;;;;;;12.07;4.22;;;;;;;;;;5030825;28;20033;-51
2022/05/25 15:31:42;;;;;;;7.78;4.30;;;;;;;;;;5030583;28;20112;-49
2022/05/25 15:34:08;;;;;;;9.23;4.60;;;;;;;;;;5030882;28;20040;-49
2022/05/25 15:36:34;;;;;;;10.45;4.28;;;;;;;;;;5029208;28;20037;-50
2022/05/25 15:38:59;;;;;;;8.32;4.20;;;;;;;;;;5030685;28;20030;-49